sensor_id;sensor_type;location;lat;lon;timestamp;pressure;altitude;pressure_sealevel;temperature;humidity
6506;BME280;3286;49.858;8.768;2023-01-26T00:01:47;99889.00;;;3.08;57.28
6506;BME280;3286;49.858;8.768;2023-01-26T00:04:13;99891.13;;;2.69;57.58
6506;BME280;3286;49.858;8.768;2023-01-26T00:06:40;99892.94;;;2.17;60.09
6506;BME280;3286;49.858;8.768;2023-01-26T00:09:11;99889.22;;;2.21;59.72
6506;BME280;3286;49.858;8.768;2023-01-26T00:11:38;99886.34;;;2.27;59.94
6506;BME280;3286;49.858;8.768;2023-01-26T00:14:05;99876.69;;;2.45;59.25
6506;BME280;3286;49.858;8.768;2023-01-26T00:16:31;99872.06;;;2.51;58.95
6506;BME280;3286;49.858;8.768;2023-01-26T00:19:00;99870.47;;;2.64;58.56
6506;BME280;3286;49.858;8.768;2023-01-26T00:21:26;99875.94;;;2.59;59.14
6506;BME280;3286;49.858;8.768;2023-01-26T00:23:53;99871.16;;;2.52;58.21
6506;BME280;3286;49.858;8.768;2023-01-26T00:26:21;99857.25;;;2.51;59.49
6506;BME280;3286;49.858;8.768;2023-01-26T00:28:49;99853.97;;;2.14;60.64
6506;BME280;3286;49.858;8.768;2023-01-26T00:31:17;99854.56;;;2.85;58.39
6506;BME280;3286;49.858;8.768;2023-01-26T00:33:44;99850.69;;;3.08;56.32
6506;BME280;3286;49.858;8.768;2023-01-26T00:36:13;99844.56;;;2.77;57.77
6506;BME280;3286;49.858;8.768;2023-01-26T00:38:40;99853.41;;;2.90;57.23
6506;BME280;3286;49.858;8.768;2023-01-26T00:41:08;99844.28;;;3.14;56.67
6506;BME280;3286;49.858;8.768;2023-01-26T00:43:54;99840.91;;;3.42;56.14
6506;BME280;3286;49.858;8.768;2023-01-26T00:46:21;99847.78;;;3.29;55.60
6506;BME280;3286;49.858;8.768;2023-01-26T00:48:47;99842.66;;;3.27;56.35
6506;BME280;3286;49.858;8.768;2023-01-26T00:51:15;99834.22;;;3.22;55.86
6506;BME280;3286;49.858;8.768;2023-01-26T00:53:42;99838.50;;;3.39;56.02
6506;BME280;3286;49.858;8.768;2023-01-26T00:56:09;99831.69;;;3.06;56.89
6506;BME280;3286;49.858;8.768;2023-01-26T00:58:35;99836.69;;;3.56;56.45
6506;BME280;3286;49.858;8.768;2023-01-26T01:01:02;99840.66;;;3.16;56.25
6506;BME280;3286;49.858;8.768;2023-01-26T01:03:29;99844.03;;;3.02;57.57
6506;BME280;3286;49.858;8.768;2023-01-26T01:05:55;99844.22;;;2.99;57.08
6506;BME280;3286;49.858;8.768;2023-01-26T01:08:23;99850.34;;;3.14;56.71
6506;BME280;3286;49.858;8.768;2023-01-26T01:11:01;99845.81;;;3.48;56.79
6506;BME280;3286;49.858;8.768;2023-01-26T01:13:28;99854.44;;;3.35;56.72
6506;BME280;3286;49.858;8.768;2023-01-26T01:15:54;99839.78;;;3.32;55.97
6506;BME280;3286;49.858;8.768;2023-01-26T01:18:21;99838.53;;;3.23;56.22
6506;BME280;3286;49.858;8.768;2023-01-26T01:20:48;99841.38;;;3.65;54.99
6506;BME280;3286;49.858;8.768;2023-01-26T01:23:14;99846.41;;;3.07;56.21
6506;BME280;3286;49.858;8.768;2023-01-26T01:25:42;99843.53;;;2.64;58.09
6506;BME280;3286;49.858;8.768;2023-01-26T01:28:10;99838.31;;;2.80;57.79
6506;BME280;3286;49.858;8.768;2023-01-26T01:30:37;99844.28;;;2.34;59.11
6506;BME280;3286;49.858;8.768;2023-01-26T01:33:03;99832.34;;;2.61;58.94
6506;BME280;3286;49.858;8.768;2023-01-26T01:35:30;99840.19;;;2.78;58.52
6506;BME280;3286;49.858;8.768;2023-01-26T01:37:58;99839.50;;;2.42;58.73
6506;BME280;3286;49.858;8.768;2023-01-26T01:40:25;99844.19;;;2.35;59.42
6506;BME280;3286;49.858;8.768;2023-01-26T01:42:53;99841.94;;;2.45;58.69
6506;BME280;3286;49.858;8.768;2023-01-26T01:45:39;99837.72;;;2.58;58.96
6506;BME280;3286;49.858;8.768;2023-01-26T01:48:12;99833.03;;;2.65;58.11
6506;BME280;3286;49.858;8.768;2023-01-26T01:50:40;99823.38;;;3.14;57.47
6506;BME280;3286;49.858;8.768;2023-01-26T01:53:10;99832.63;;;2.89;57.46
6506;BME280;3286;49.858;8.768;2023-01-26T01:55:39;99840.25;;;2.44;58.51
6506;BME280;3286;49.858;8.768;2023-01-26T01:58:07;99838.16;;;2.51;58.94
6506;BME280;3286;49.858;8.768;2023-01-26T02:00:34;99836.81;;;2.75;58.12
6506;BME280;3286;49.858;8.768;2023-01-26T02:03:04;99832.69;;;2.87;57.70
6506;BME280;3286;49.858;8.768;2023-01-26T02:05:43;99837.03;;;3.03;57.03
6506;BME280;3286;49.858;8.768;2023-01-26T02:08:13;99838.00;;;2.70;58.34
6506;BME280;3286;49.858;8.768;2023-01-26T02:10:42;99840.94;;;2.14;60.30
6506;BME280;3286;49.858;8.768;2023-01-26T02:13:13;99839.06;;;2.00;60.51
6506;BME280;3286;49.858;8.768;2023-01-26T02:15:41;99841.31;;;1.90;60.80
6506;BME280;3286;49.858;8.768;2023-01-26T02:18:08;99833.66;;;1.34;61.94
6506;BME280;3286;49.858;8.768;2023-01-26T02:20:40;99823.31;;;1.85;61.45
6506;BME280;3286;49.858;8.768;2023-01-26T02:23:18;99820.44;;;1.39;62.46
6506;BME280;3286;49.858;8.768;2023-01-26T02:28:38;99826.38;;;1.06;63.28
6506;BME280;3286;49.858;8.768;2023-01-26T02:31:06;99823.88;;;1.22;62.74
6506;BME280;3286;49.858;8.768;2023-01-26T02:33:33;99821.06;;;1.26;62.86
6506;BME280;3286;49.858;8.768;2023-01-26T02:36:01;99813.00;;;1.31;63.24
6506;BME280;3286;49.858;8.768;2023-01-26T02:38:35;99813.91;;;1.65;61.93
6506;BME280;3286;49.858;8.768;2023-01-26T02:41:06;99819.25;;;1.80;60.71
6506;BME280;3286;49.858;8.768;2023-01-26T02:43:34;99807.19;;;2.44;59.61
6506;BME280;3286;49.858;8.768;2023-01-26T02:46:01;99794.75;;;2.66;58.31
6506;BME280;3286;49.858;8.768;2023-01-26T02:48:28;99796.91;;;2.73;58.00
6506;BME280;3286;49.858;8.768;2023-01-26T02:51:12;99805.50;;;1.94;60.44
6506;BME280;3286;49.858;8.768;2023-01-26T02:53:39;99799.66;;;2.22;60.43
6506;BME280;3286;49.858;8.768;2023-01-26T02:56:06;99792.00;;;2.03;59.81
6506;BME280;3286;49.858;8.768;2023-01-26T02:58:31;99789.25;;;2.22;59.36
6506;BME280;3286;49.858;8.768;2023-01-26T03:00:58;99789.34;;;2.21;59.33
6506;BME280;3286;49.858;8.768;2023-01-26T03:03:27;99787.50;;;1.38;60.62
6506;BME280;3286;49.858;8.768;2023-01-26T03:06:07;99787.78;;;0.40;64.49
6506;BME280;3286;49.858;8.768;2023-01-26T03:08:33;99781.28;;;0.32;65.54
6506;BME280;3286;49.858;8.768;2023-01-26T03:11:00;99780.00;;;1.32;61.86
6506;BME280;3286;49.858;8.768;2023-01-26T03:13:27;99770.56;;;1.64;60.85
6506;BME280;3286;49.858;8.768;2023-01-26T03:15:53;99770.38;;;1.85;60.42
6506;BME280;3286;49.858;8.768;2023-01-26T03:18:21;99772.03;;;2.20;59.75
6506;BME280;3286;49.858;8.768;2023-01-26T03:21:10;99765.97;;;2.67;58.79
6506;BME280;3286;49.858;8.768;2023-01-26T03:23:55;99762.94;;;2.75;57.47
6506;BME280;3286;49.858;8.768;2023-01-26T03:26:39;99754.13;;;2.45;59.47
6506;BME280;3286;49.858;8.768;2023-01-26T03:29:24;99758.88;;;2.69;58.17
6506;BME280;3286;49.858;8.768;2023-01-26T03:31:51;99751.59;;;2.60;58.67
6506;BME280;3286;49.858;8.768;2023-01-26T03:34:18;99761.44;;;2.71;58.30
6506;BME280;3286;49.858;8.768;2023-01-26T03:36:47;99756.38;;;2.68;57.99
6506;BME280;3286;49.858;8.768;2023-01-26T03:39:14;99756.06;;;2.42;59.03
6506;BME280;3286;49.858;8.768;2023-01-26T03:41:54;99749.59;;;2.80;58.33
6506;BME280;3286;49.858;8.768;2023-01-26T03:44:38;99739.81;;;2.53;58.16
6506;BME280;3286;49.858;8.768;2023-01-26T03:47:22;99746.50;;;3.34;56.61
6506;BME280;3286;49.858;8.768;2023-01-26T03:50:07;99739.41;;;2.91;58.03
6506;BME280;3286;49.858;8.768;2023-01-26T03:52:53;99738.25;;;2.65;58.28
6506;BME280;3286;49.858;8.768;2023-01-26T03:55:37;99740.78;;;2.82;57.85
6506;BME280;3286;49.858;8.768;2023-01-26T03:58:21;99744.00;;;2.71;58.09
6506;BME280;3286;49.858;8.768;2023-01-26T04:00:48;99739.06;;;2.97;57.96
6506;BME280;3286;49.858;8.768;2023-01-26T04:03:14;99742.31;;;2.70;57.88
6506;BME280;3286;49.858;8.768;2023-01-26T04:05:59;99736.91;;;3.04;57.45
6506;BME280;3286;49.858;8.768;2023-01-26T04:08:45;99738.34;;;2.79;58.46
6506;BME280;3286;49.858;8.768;2023-01-26T04:11:12;99742.59;;;2.96;57.34
6506;BME280;3286;49.858;8.768;2023-01-26T04:13:39;99740.84;;;2.81;57.54
6506;BME280;3286;49.858;8.768;2023-01-26T04:16:23;99745.88;;;2.84;58.31
6506;BME280;3286;49.858;8.768;2023-01-26T04:19:07;99739.41;;;2.91;58.30
6506;BME280;3286;49.858;8.768;2023-01-26T04:21:51;99736.06;;;2.89;57.80
6506;BME280;3286;49.858;8.768;2023-01-26T04:24:19;99727.94;;;2.94;57.98
6506;BME280;3286;49.858;8.768;2023-01-26T04:26:46;99722.28;;;3.01;57.26
6506;BME280;3286;49.858;8.768;2023-01-26T04:29:14;99727.00;;;2.95;57.45
6506;BME280;3286;49.858;8.768;2023-01-26T04:31:42;99714.25;;;2.90;57.68
6506;BME280;3286;49.858;8.768;2023-01-26T04:34:10;99717.28;;;2.82;57.94
6506;BME280;3286;49.858;8.768;2023-01-26T04:36:37;99711.72;;;2.88;58.36
6506;BME280;3286;49.858;8.768;2023-01-26T04:39:04;99709.34;;;2.84;57.72
6506;BME280;3286;49.858;8.768;2023-01-26T04:41:32;99706.34;;;2.75;58.23
6506;BME280;3286;49.858;8.768;2023-01-26T04:43:59;99701.66;;;2.97;57.21
6506;BME280;3286;49.858;8.768;2023-01-26T04:46:26;99700.28;;;2.91;57.39
6506;BME280;3286;49.858;8.768;2023-01-26T04:48:52;99704.84;;;3.02;57.16
6506;BME280;3286;49.858;8.768;2023-01-26T04:51:20;99697.56;;;2.93;57.05
6506;BME280;3286;49.858;8.768;2023-01-26T04:53:48;99706.25;;;1.98;60.48
6506;BME280;3286;49.858;8.768;2023-01-26T04:56:19;99705.88;;;1.39;63.17
6506;BME280;3286;49.858;8.768;2023-01-26T04:58:49;99701.63;;;2.36;61.19
6506;BME280;3286;49.858;8.768;2023-01-26T05:01:16;99690.94;;;2.24;61.09
6506;BME280;3286;49.858;8.768;2023-01-26T05:03:43;99681.91;;;2.62;60.14
6506;BME280;3286;49.858;8.768;2023-01-26T05:06:09;99694.38;;;2.41;60.20
6506;BME280;3286;49.858;8.768;2023-01-26T05:08:36;99696.66;;;1.99;61.15
6506;BME280;3286;49.858;8.768;2023-01-26T05:11:04;99697.44;;;1.85;61.01
6506;BME280;3286;49.858;8.768;2023-01-26T05:13:31;99690.13;;;2.24;60.82
6506;BME280;3286;49.858;8.768;2023-01-26T05:16:01;99686.00;;;2.03;60.05
6506;BME280;3286;49.858;8.768;2023-01-26T05:18:28;99683.63;;;2.15;59.90
6506;BME280;3286;49.858;8.768;2023-01-26T05:20:55;99686.03;;;2.50;59.04
6506;BME280;3286;49.858;8.768;2023-01-26T05:23:22;99684.09;;;2.70;58.97
6506;BME280;3286;49.858;8.768;2023-01-26T05:25:48;99690.06;;;2.72;58.86
6506;BME280;3286;49.858;8.768;2023-01-26T05:28:15;99690.16;;;2.85;59.12
6506;BME280;3286;49.858;8.768;2023-01-26T05:30:42;99681.00;;;2.47;59.92
6506;BME280;3286;49.858;8.768;2023-01-26T05:33:10;99693.06;;;2.01;61.40
6506;BME280;3286;49.858;8.768;2023-01-26T05:35:37;99700.53;;;2.24;60.68
6506;BME280;3286;49.858;8.768;2023-01-26T05:38:03;99698.63;;;1.62;63.17
6506;BME280;3286;49.858;8.768;2023-01-26T05:40:30;99709.38;;;2.05;60.80
6506;BME280;3286;49.858;8.768;2023-01-26T05:42:57;99702.78;;;1.66;61.62
6506;BME280;3286;49.858;8.768;2023-01-26T05:45:23;99715.06;;;1.96;60.87
6506;BME280;3286;49.858;8.768;2023-01-26T05:47:50;99699.63;;;2.25;60.54
6506;BME280;3286;49.858;8.768;2023-01-26T05:50:18;99695.66;;;2.50;59.66
6506;BME280;3286;49.858;8.768;2023-01-26T05:52:45;99695.28;;;2.72;59.33
6506;BME280;3286;49.858;8.768;2023-01-26T05:55:12;99705.50;;;2.91;58.68
6506;BME280;3286;49.858;8.768;2023-01-26T05:57:39;99711.38;;;2.48;59.40
6506;BME280;3286;49.858;8.768;2023-01-26T06:00:07;99706.38;;;2.59;59.17
6506;BME280;3286;49.858;8.768;2023-01-26T06:02:34;99714.25;;;2.90;58.33
6506;BME280;3286;49.858;8.768;2023-01-26T06:05:01;99710.72;;;2.91;58.24
6506;BME280;3286;49.858;8.768;2023-01-26T06:07:29;99722.22;;;2.24;59.71
6506;BME280;3286;49.858;8.768;2023-01-26T06:09:55;99724.34;;;2.50;59.42
6506;BME280;3286;49.858;8.768;2023-01-26T06:12:22;99727.88;;;2.49;59.28
6506;BME280;3286;49.858;8.768;2023-01-26T06:14:49;99719.75;;;3.00;56.91
6506;BME280;3286;49.858;8.768;2023-01-26T06:17:17;99731.31;;;2.49;58.65
6506;BME280;3286;49.858;8.768;2023-01-26T06:19:43;99738.66;;;2.89;58.02
6506;BME280;3286;49.858;8.768;2023-01-26T06:22:11;99724.88;;;2.87;57.32
6506;BME280;3286;49.858;8.768;2023-01-26T06:24:39;99735.88;;;2.45;59.51
6506;BME280;3286;49.858;8.768;2023-01-26T06:27:11;99737.72;;;1.78;60.77
6506;BME280;3286;49.858;8.768;2023-01-26T06:29:38;99736.63;;;1.66;61.97
6506;BME280;3286;49.858;8.768;2023-01-26T06:32:05;99734.66;;;2.19;60.81
6506;BME280;3286;49.858;8.768;2023-01-26T06:34:32;99733.16;;;2.63;59.95
6506;BME280;3286;49.858;8.768;2023-01-26T06:36:59;99739.88;;;2.51;59.29
6506;BME280;3286;49.858;8.768;2023-01-26T06:39:25;99750.69;;;1.79;61.25
6506;BME280;3286;49.858;8.768;2023-01-26T06:41:53;99744.16;;;1.88;61.04
6506;BME280;3286;49.858;8.768;2023-01-26T06:44:20;99744.19;;;1.70;62.05
6506;BME280;3286;49.858;8.768;2023-01-26T06:46:46;99748.69;;;1.84;61.14
6506;BME280;3286;49.858;8.768;2023-01-26T06:49:13;99746.41;;;1.78;61.91
6506;BME280;3286;49.858;8.768;2023-01-26T06:51:54;99743.78;;;1.78;61.05
6506;BME280;3286;49.858;8.768;2023-01-26T06:54:22;99750.16;;;2.54;59.55
6506;BME280;3286;49.858;8.768;2023-01-26T06:56:48;99740.47;;;2.24;59.79
6506;BME280;3286;49.858;8.768;2023-01-26T06:59:16;99734.09;;;2.14;60.17
6506;BME280;3286;49.858;8.768;2023-01-26T07:01:44;99733.22;;;2.61;58.09
6506;BME280;3286;49.858;8.768;2023-01-26T07:04:13;99734.34;;;2.41;58.97
6506;BME280;3286;49.858;8.768;2023-01-26T07:06:39;99734.75;;;2.01;60.17
6506;BME280;3286;49.858;8.768;2023-01-26T07:09:06;99742.16;;;1.93;60.71
6506;BME280;3286;49.858;8.768;2023-01-26T07:11:33;99733.94;;;1.67;60.08
6506;BME280;3286;49.858;8.768;2023-01-26T07:14:00;99745.19;;;2.01;60.17
6506;BME280;3286;49.858;8.768;2023-01-26T07:16:28;99747.75;;;1.85;59.60
6506;BME280;3286;49.858;8.768;2023-01-26T07:18:54;99745.09;;;2.51;57.78
6506;BME280;3286;49.858;8.768;2023-01-26T07:21:21;99748.56;;;2.52;57.57
6506;BME280;3286;49.858;8.768;2023-01-26T07:23:48;99749.03;;;2.58;58.08
6506;BME280;3286;49.858;8.768;2023-01-26T07:26:15;99751.03;;;1.55;59.55
6506;BME280;3286;49.858;8.768;2023-01-26T07:28:42;99750.00;;;1.76;60.56
6506;BME280;3286;49.858;8.768;2023-01-26T07:31:10;99761.16;;;1.95;59.17
6506;BME280;3286;49.858;8.768;2023-01-26T07:33:38;99754.69;;;1.69;60.08
6506;BME280;3286;49.858;8.768;2023-01-26T07:36:05;99751.88;;;1.38;61.40
6506;BME280;3286;49.858;8.768;2023-01-26T07:38:33;99759.63;;;1.40;61.49
6506;BME280;3286;49.858;8.768;2023-01-26T07:41:08;99762.22;;;1.57;60.37
6506;BME280;3286;49.858;8.768;2023-01-26T07:43:36;99765.38;;;2.14;59.56
6506;BME280;3286;49.858;8.768;2023-01-26T07:46:04;99765.09;;;2.02;60.08
6506;BME280;3286;49.858;8.768;2023-01-26T07:48:31;99765.94;;;1.87;59.70
6506;BME280;3286;49.858;8.768;2023-01-26T07:51:00;99765.16;;;1.85;59.32
6506;BME280;3286;49.858;8.768;2023-01-26T07:53:28;99759.16;;;2.16;58.51
6506;BME280;3286;49.858;8.768;2023-01-26T07:56:05;99764.78;;;2.25;58.64
6506;BME280;3286;49.858;8.768;2023-01-26T07:58:32;99755.19;;;2.73;57.13
6506;BME280;3286;49.858;8.768;2023-01-26T08:01:08;99756.97;;;2.25;58.92
6506;BME280;3286;49.858;8.768;2023-01-26T08:03:35;99753.09;;;2.32;57.47
6506;BME280;3286;49.858;8.768;2023-01-26T08:06:04;99752.50;;;2.59;57.19
6506;BME280;3286;49.858;8.768;2023-01-26T08:08:31;99753.63;;;2.39;57.48
6506;BME280;3286;49.858;8.768;2023-01-26T08:10:58;99752.97;;;2.82;56.89
6506;BME280;3286;49.858;8.768;2023-01-26T08:13:26;99753.34;;;2.59;57.97
6506;BME280;3286;49.858;8.768;2023-01-26T08:15:53;99756.66;;;1.48;60.08
6506;BME280;3286;49.858;8.768;2023-01-26T08:18:20;99765.06;;;1.35;60.30
6506;BME280;3286;49.858;8.768;2023-01-26T08:20:50;99763.97;;;1.91;59.37
6506;BME280;3286;49.858;8.768;2023-01-26T08:23:18;99762.59;;;2.17;58.67
6506;BME280;3286;49.858;8.768;2023-01-26T08:25:45;99770.91;;;2.08;58.50
6506;BME280;3286;49.858;8.768;2023-01-26T08:28:12;99773.59;;;2.22;58.81
6506;BME280;3286;49.858;8.768;2023-01-26T08:30:38;99776.41;;;2.67;56.51
6506;BME280;3286;49.858;8.768;2023-01-26T08:33:05;99787.03;;;1.65;59.15
6506;BME280;3286;49.858;8.768;2023-01-26T08:35:32;99776.72;;;2.13;58.24
6506;BME280;3286;49.858;8.768;2023-01-26T08:37:59;99779.31;;;2.13;57.44
6506;BME280;3286;49.858;8.768;2023-01-26T08:40:27;99776.41;;;2.35;57.00
6506;BME280;3286;49.858;8.768;2023-01-26T08:42:54;99778.97;;;2.03;58.76
6506;BME280;3286;49.858;8.768;2023-01-26T08:45:20;99786.31;;;2.12;58.03
6506;BME280;3286;49.858;8.768;2023-01-26T08:47:48;99782.16;;;-0.08;61.45
6506;BME280;3286;49.858;8.768;2023-01-26T08:50:15;99789.69;;;0.18;62.05
6506;BME280;3286;49.858;8.768;2023-01-26T08:52:42;99794.75;;;1.66;58.00
6506;BME280;3286;49.858;8.768;2023-01-26T08:55:09;99784.38;;;2.16;55.11
6506;BME280;3286;49.858;8.768;2023-01-26T08:57:37;99796.44;;;2.67;54.86
6506;BME280;3286;49.858;8.768;2023-01-26T09:00:04;99796.28;;;2.70;54.93
6506;BME280;3286;49.858;8.768;2023-01-26T09:02:31;99794.28;;;2.89;54.10
6506;BME280;3286;49.858;8.768;2023-01-26T09:04:58;99789.78;;;2.77;53.54
6506;BME280;3286;49.858;8.768;2023-01-26T09:07:24;99801.44;;;1.19;57.36
6506;BME280;3286;49.858;8.768;2023-01-26T09:09:51;99801.44;;;0.65;60.61
6506;BME280;3286;49.858;8.768;2023-01-26T09:12:18;99792.28;;;0.56;60.07
6506;BME280;3286;49.858;8.768;2023-01-26T09:14:46;99793.53;;;0.66;59.67
6506;BME280;3286;49.858;8.768;2023-01-26T09:17:12;99804.84;;;-0.53;64.66
6506;BME280;3286;49.858;8.768;2023-01-26T09:19:39;99795.81;;;0.36;61.71
6506;BME280;3286;49.858;8.768;2023-01-26T09:22:07;99798.44;;;0.72;60.78
6506;BME280;3286;49.858;8.768;2023-01-26T09:24:33;99794.56;;;0.81;61.13
6506;BME280;3286;49.858;8.768;2023-01-26T09:27:00;99798.91;;;1.35;59.33
6506;BME280;3286;49.858;8.768;2023-01-26T09:29:27;99805.03;;;1.52;58.57
6506;BME280;3286;49.858;8.768;2023-01-26T09:31:55;99797.09;;;1.88;57.29
6506;BME280;3286;49.858;8.768;2023-01-26T09:34:21;99795.84;;;1.62;57.27
6506;BME280;3286;49.858;8.768;2023-01-26T09:36:49;99796.25;;;1.37;57.65
6506;BME280;3286;49.858;8.768;2023-01-26T09:39:16;99796.38;;;0.42;59.86
6506;BME280;3286;49.858;8.768;2023-01-26T09:41:50;99795.88;;;0.53;59.66
6506;BME280;3286;49.858;8.768;2023-01-26T09:44:23;99793.56;;;0.47;60.62
6506;BME280;3286;49.858;8.768;2023-01-26T09:47:01;99807.91;;;0.93;59.58
6506;BME280;3286;49.858;8.768;2023-01-26T09:49:38;99802.53;;;0.96;58.49
6506;BME280;3286;49.858;8.768;2023-01-26T09:52:11;99802.00;;;1.43;57.40
6506;BME280;3286;49.858;8.768;2023-01-26T09:54:42;99804.31;;;1.83;56.54
6506;BME280;3286;49.858;8.768;2023-01-26T09:57:12;99800.50;;;1.20;57.69
6506;BME280;3286;49.858;8.768;2023-01-26T09:59:44;99800.44;;;0.48;59.69
6506;BME280;3286;49.858;8.768;2023-01-26T10:02:22;99798.06;;;0.63;59.05
6506;BME280;3286;49.858;8.768;2023-01-26T10:04:55;99806.44;;;-0.09;60.69
6506;BME280;3286;49.858;8.768;2023-01-26T10:07:23;99797.06;;;0.65;59.47
6506;BME280;3286;49.858;8.768;2023-01-26T10:09:51;99796.50;;;0.95;57.97
6506;BME280;3286;49.858;8.768;2023-01-26T10:12:22;99788.44;;;0.26;58.54
6506;BME280;3286;49.858;8.768;2023-01-26T10:14:52;99791.38;;;0.38;58.70
6506;BME280;3286;49.858;8.768;2023-01-26T10:17:25;99795.47;;;0.24;58.29
6506;BME280;3286;49.858;8.768;2023-01-26T10:19:57;99788.78;;;-0.01;59.34
6506;BME280;3286;49.858;8.768;2023-01-26T10:22:30;99785.69;;;0.10;58.62
6506;BME280;3286;49.858;8.768;2023-01-26T10:24:58;99786.03;;;0.22;58.93
6506;BME280;3286;49.858;8.768;2023-01-26T10:27:26;99781.00;;;0.38;57.41
6506;BME280;3286;49.858;8.768;2023-01-26T10:29:53;99794.28;;;-0.08;59.51
6506;BME280;3286;49.858;8.768;2023-01-26T10:32:21;99785.22;;;0.21;58.31
6506;BME280;3286;49.858;8.768;2023-01-26T10:34:48;99785.31;;;-0.20;59.70
6506;BME280;3286;49.858;8.768;2023-01-26T10:37:22;99793.94;;;-1.04;62.42
6506;BME280;3286;49.858;8.768;2023-01-26T10:39:57;99791.16;;;-1.20;62.40
6506;BME280;3286;49.858;8.768;2023-01-26T10:42:26;99785.41;;;0.36;58.02
6506;BME280;3286;49.858;8.768;2023-01-26T10:44:53;99779.94;;;1.51;54.95
6506;BME280;3286;49.858;8.768;2023-01-26T10:47:21;99775.91;;;0.91;56.70
6506;BME280;3286;49.858;8.768;2023-01-26T10:49:49;99789.91;;;-0.48;58.57
6506;BME280;3286;49.858;8.768;2023-01-26T10:52:18;99780.78;;;0.04;57.90
6506;BME280;3286;49.858;8.768;2023-01-26T10:54:46;99784.13;;;-0.34;58.78
6506;BME280;3286;49.858;8.768;2023-01-26T10:57:16;99779.47;;;-0.46;59.95
6506;BME280;3286;49.858;8.768;2023-01-26T10:59:49;99765.34;;;0.94;56.91
6506;BME280;3286;49.858;8.768;2023-01-26T11:02:23;99757.94;;;1.39;53.96
6506;BME280;3286;49.858;8.768;2023-01-26T11:05:14;99759.63;;;0.87;55.37
6506;BME280;3286;49.858;8.768;2023-01-26T11:07:44;99763.03;;;0.70;56.17
6506;BME280;3286;49.858;8.768;2023-01-26T11:10:26;99759.34;;;0.18;57.17
6506;BME280;3286;49.858;8.768;2023-01-26T11:13:06;99759.31;;;0.56;56.98
6506;BME280;3286;49.858;8.768;2023-01-26T11:15:35;99753.28;;;-0.21;58.59
6506;BME280;3286;49.858;8.768;2023-01-26T11:18:12;99750.16;;;0.86;57.09
6506;BME280;3286;49.858;8.768;2023-01-26T11:20:55;99748.25;;;-0.05;58.30
6506;BME280;3286;49.858;8.768;2023-01-26T11:26:41;99748.31;;;1.06;56.39
6506;BME280;3286;49.858;8.768;2023-01-26T11:32:11;99737.75;;;0.54;58.08
6506;BME280;3286;49.858;8.768;2023-01-26T11:34:49;99732.31;;;0.41;56.88
6506;BME280;3286;49.858;8.768;2023-01-26T11:37:38;99732.50;;;0.74;56.29
6506;BME280;3286;49.858;8.768;2023-01-26T11:40:20;99733.09;;;1.67;53.24
6506;BME280;3286;49.858;8.768;2023-01-26T11:43:01;99730.91;;;0.71;54.84
6506;BME280;3286;49.858;8.768;2023-01-26T11:45:35;99729.38;;;0.67;56.13
6506;BME280;3286;49.858;8.768;2023-01-26T11:48:12;99726.72;;;1.39;53.74
6506;BME280;3286;49.858;8.768;2023-01-26T11:50:44;99719.97;;;1.35;53.77
6506;BME280;3286;49.858;8.768;2023-01-26T11:53:32;99726.53;;;2.09;51.81
6506;BME280;3286;49.858;8.768;2023-01-26T11:56:18;99720.91;;;1.67;53.68
6506;BME280;3286;49.858;8.768;2023-01-26T11:58:51;99709.94;;;1.27;54.54
6506;BME280;3286;49.858;8.768;2023-01-26T12:01:23;99716.47;;;0.46;55.97
6506;BME280;3286;49.858;8.768;2023-01-26T12:03:54;99704.25;;;1.54;53.68
6506;BME280;3286;49.858;8.768;2023-01-26T12:06:27;99702.06;;;1.11;53.18
6506;BME280;3286;49.858;8.768;2023-01-26T12:08:59;99704.59;;;1.30;53.33
6506;BME280;3286;49.858;8.768;2023-01-26T12:11:30;99704.72;;;1.78;51.48
6506;BME280;3286;49.858;8.768;2023-01-26T12:14:14;99703.91;;;2.42;50.46
6506;BME280;3286;49.858;8.768;2023-01-26T12:16:52;99694.50;;;1.57;52.95
6506;BME280;3286;49.858;8.768;2023-01-26T12:19:31;99697.94;;;0.54;55.87
6506;BME280;3286;49.858;8.768;2023-01-26T12:22:10;99700.91;;;0.27;56.53
6506;BME280;3286;49.858;8.768;2023-01-26T12:24:40;99684.28;;;1.03;54.58
6506;BME280;3286;49.858;8.768;2023-01-26T12:27:15;99681.03;;;1.15;53.70
6506;BME280;3286;49.858;8.768;2023-01-26T12:29:48;99677.94;;;1.58;52.56
6506;BME280;3286;49.858;8.768;2023-01-26T12:32:17;99672.25;;;1.34;52.00
6506;BME280;3286;49.858;8.768;2023-01-26T12:34:44;99674.72;;;1.71;51.39
6506;BME280;3286;49.858;8.768;2023-01-26T12:40:21;99662.38;;;1.41;52.91
6506;BME280;3286;49.858;8.768;2023-01-26T12:43:00;99660.25;;;1.65;51.36
6506;BME280;3286;49.858;8.768;2023-01-26T12:45:32;99661.25;;;2.27;49.92
6506;BME280;3286;49.858;8.768;2023-01-26T12:48:09;99663.88;;;2.27;50.54
6506;BME280;3286;49.858;8.768;2023-01-26T12:50:39;99660.94;;;0.84;53.35
6506;BME280;3286;49.858;8.768;2023-01-26T12:53:12;99657.31;;;0.51;55.43
6506;BME280;3286;49.858;8.768;2023-01-26T12:55:44;99650.94;;;0.39;55.52
6506;BME280;3286;49.858;8.768;2023-01-26T12:58:17;99652.25;;;1.01;54.00
6506;BME280;3286;49.858;8.768;2023-01-26T13:00:51;99653.88;;;0.14;55.68
6506;BME280;3286;49.858;8.768;2023-01-26T13:03:21;99645.16;;;0.15;55.93
6506;BME280;3286;49.858;8.768;2023-01-26T13:05:59;99659.34;;;0.27;55.35
6506;BME280;3286;49.858;8.768;2023-01-26T13:08:46;99651.28;;;0.68;55.00
6506;BME280;3286;49.858;8.768;2023-01-26T13:11:44;99656.09;;;0.94;54.79
6506;BME280;3286;49.858;8.768;2023-01-26T13:14:30;99651.34;;;0.49;55.55
6506;BME280;3286;49.858;8.768;2023-01-26T13:20:25;99645.97;;;1.88;51.78
6506;BME280;3286;49.858;8.768;2023-01-26T13:22:52;99649.06;;;1.63;52.27
6506;BME280;3286;49.858;8.768;2023-01-26T13:25:27;99647.03;;;1.52;52.63
6506;BME280;3286;49.858;8.768;2023-01-26T13:27:58;99653.25;;;1.16;53.14
6506;BME280;3286;49.858;8.768;2023-01-26T13:30:43;99654.06;;;0.28;57.19
6506;BME280;3286;49.858;8.768;2023-01-26T13:33:17;99648.19;;;1.30;54.25
6506;BME280;3286;49.858;8.768;2023-01-26T13:35:47;99644.28;;;2.20;51.82
6506;BME280;3286;49.858;8.768;2023-01-26T13:38:24;99650.19;;;1.91;52.95
6506;BME280;3286;49.858;8.768;2023-01-26T13:40:53;99649.34;;;0.54;55.58
6506;BME280;3286;49.858;8.768;2023-01-26T13:43:27;99654.47;;;0.38;56.72
6506;BME280;3286;49.858;8.768;2023-01-26T13:46:06;99662.34;;;-0.38;59.75
6506;BME280;3286;49.858;8.768;2023-01-26T13:48:46;99656.09;;;0.04;58.91
6506;BME280;3286;49.858;8.768;2023-01-26T13:51:16;99654.31;;;1.12;54.77
6506;BME280;3286;49.858;8.768;2023-01-26T13:53:46;99656.78;;;0.80;54.98
6506;BME280;3286;49.858;8.768;2023-01-26T13:56:27;99657.91;;;0.39;56.63
6506;BME280;3286;49.858;8.768;2023-01-26T13:59:08;99648.84;;;0.83;55.04
6506;BME280;3286;49.858;8.768;2023-01-26T14:01:43;99653.03;;;1.03;53.97
6506;BME280;3286;49.858;8.768;2023-01-26T14:04:13;99659.22;;;-0.27;56.71
6506;BME280;3286;49.858;8.768;2023-01-26T14:06:43;99659.91;;;0.34;55.69